sensor_id;sensor_type;location;lat;lon;timestamp;P1;durP1;ratioP1;P2;durP2;ratioP2
53927;SDS011;39837;47.630;18.822;2023-04-01T00:00:54;1.60;;;1.60;;
53927;SDS011;39837;47.630;18.822;2023-04-01T00:03:39;1.95;;;1.95;;
53927;SDS011;39837;47.630;18.822;2023-04-01T00:06:23;1.95;;;1.85;;
53927;SDS011;39837;47.630;18.822;2023-04-01T00:09:07;1.45;;;1.45;;
53927;SDS011;39837;47.630;18.822;2023-04-01T00:11:51;2.40;;;2.20;;
53927;SDS011;39837;47.630;18.822;2023-04-01T00:14:35;2.40;;;2.33;;
53927;SDS011;39837;47.630;18.822;2023-04-01T00:17:20;1.67;;;1.67;;
53927;SDS011;39837;47.630;18.822;2023-04-01T00:20:05;1.65;;;1.65;;
53927;SDS011;39837;47.630;18.822;2023-04-01T00:22:51;1.60;;;1.60;;
53927;SDS011;39837;47.630;18.822;2023-04-01T00:25:36;2.05;;;1.95;;
53927;SDS011;39837;47.630;18.822;2023-04-01T00:28:20;2.80;;;1.70;;
53927;SDS011;39837;47.630;18.822;2023-04-01T00:31:08;2.00;;;1.98;;
53927;SDS011;39837;47.630;18.822;2023-04-01T00:33:53;1.65;;;1.63;;
53927;SDS011;39837;47.630;18.822;2023-04-01T00:36:37;2.08;;;1.92;;
53927;SDS011;39837;47.630;18.822;2023-04-01T00:39:22;1.48;;;1.48;;
53927;SDS011;39837;47.630;18.822;2023-04-01T00:42:06;2.50;;;1.75;;
53927;SDS011;39837;47.630;18.822;2023-04-01T00:44:51;1.70;;;1.70;;
53927;SDS011;39837;47.630;18.822;2023-04-01T00:47:36;1.45;;;1.45;;
53927;SDS011;39837;47.630;18.822;2023-04-01T00:50:21;1.60;;;1.60;;
53927;SDS011;39837;47.630;18.822;2023-04-01T00:53:06;1.58;;;1.58;;
53927;SDS011;39837;47.630;18.822;2023-04-01T00:55:55;1.65;;;1.65;;
53927;SDS011;39837;47.630;18.822;2023-04-01T00:58:42;2.42;;;2.22;;
53927;SDS011;39837;47.630;18.822;2023-04-01T01:01:28;1.50;;;1.50;;
53927;SDS011;39837;47.630;18.822;2023-04-01T01:04:21;5.53;;;1.55;;
53927;SDS011;39837;47.630;18.822;2023-04-01T01:13:11;1.60;;;1.60;;
53927;SDS011;39837;47.630;18.822;2023-04-01T01:16:18;1.60;;;1.60;;
53927;SDS011;39837;47.630;18.822;2023-04-01T01:22:49;1.50;;;1.50;;
53927;SDS011;39837;47.630;18.822;2023-04-01T01:25:42;1.60;;;1.60;;
53927;SDS011;39837;47.630;18.822;2023-04-01T01:37:15;1.50;;;1.40;;
53927;SDS011;39837;47.630;18.822;2023-04-01T01:40:02;1.20;;;1.20;;
53927;SDS011;39837;47.630;18.822;2023-04-01T01:42:50;3.60;;;1.33;;
53927;SDS011;39837;47.630;18.822;2023-04-01T01:45:38;1.23;;;1.23;;
53927;SDS011;39837;47.630;18.822;2023-04-01T01:48:24;4.53;;;1.75;;
53927;SDS011;39837;47.630;18.822;2023-04-01T01:51:10;1.35;;;1.35;;
53927;SDS011;39837;47.630;18.822;2023-04-01T01:53:54;1.38;;;1.30;;
53927;SDS011;39837;47.630;18.822;2023-04-01T01:56:38;1.50;;;1.50;;
53927;SDS011;39837;47.630;18.822;2023-04-01T01:59:22;1.27;;;1.20;;
53927;SDS011;39837;47.630;18.822;2023-04-01T02:02:08;1.20;;;1.20;;
53927;SDS011;39837;47.630;18.822;2023-04-01T02:04:52;1.85;;;1.75;;
53927;SDS011;39837;47.630;18.822;2023-04-01T02:07:37;1.55;;;1.55;;
53927;SDS011;39837;47.630;18.822;2023-04-01T02:10:24;1.70;;;1.67;;
53927;SDS011;39837;47.630;18.822;2023-04-01T02:13:31;2.13;;;2.03;;
53927;SDS011;39837;47.630;18.822;2023-04-01T02:16:16;1.35;;;1.35;;
53927;SDS011;39837;47.630;18.822;2023-04-01T02:19:06;1.60;;;1.60;;
53927;SDS011;39837;47.630;18.822;2023-04-01T02:21:53;1.33;;;1.33;;
53927;SDS011;39837;47.630;18.822;2023-04-01T02:24:39;1.17;;;1.17;;
53927;SDS011;39837;47.630;18.822;2023-04-01T02:27:24;1.15;;;1.15;;
53927;SDS011;39837;47.630;18.822;2023-04-01T02:30:09;1.42;;;1.42;;
53927;SDS011;39837;47.630;18.822;2023-04-01T02:32:54;1.30;;;1.30;;
53927;SDS011;39837;47.630;18.822;2023-04-01T02:35:39;1.50;;;1.50;;
53927;SDS011;39837;47.630;18.822;2023-04-01T02:38:23;1.50;;;1.40;;
53927;SDS011;39837;47.630;18.822;2023-04-01T02:41:08;1.52;;;1.42;;
53927;SDS011;39837;47.630;18.822;2023-04-01T02:43:52;2.35;;;1.63;;
53927;SDS011;39837;47.630;18.822;2023-04-01T02:46:36;1.52;;;1.52;;
53927;SDS011;39837;47.630;18.822;2023-04-01T02:49:20;1.60;;;1.50;;
53927;SDS011;39837;47.630;18.822;2023-04-01T02:52:04;1.40;;;1.40;;
53927;SDS011;39837;47.630;18.822;2023-04-01T02:54:48;1.60;;;1.60;;
53927;SDS011;39837;47.630;18.822;2023-04-01T02:57:32;1.63;;;1.52;;
53927;SDS011;39837;47.630;18.822;2023-04-01T03:00:16;1.30;;;1.30;;
53927;SDS011;39837;47.630;18.822;2023-04-01T03:03:01;1.50;;;1.50;;
53927;SDS011;39837;47.630;18.822;2023-04-01T03:05:46;1.48;;;1.48;;
53927;SDS011;39837;47.630;18.822;2023-04-01T03:08:30;0.75;;;0.75;;
53927;SDS011;39837;47.630;18.822;2023-04-01T03:11:14;1.33;;;1.33;;
53927;SDS011;39837;47.630;18.822;2023-04-01T03:13:58;1.27;;;1.27;;
53927;SDS011;39837;47.630;18.822;2023-04-01T03:16:42;1.27;;;1.27;;
53927;SDS011;39837;47.630;18.822;2023-04-01T03:19:26;0.88;;;0.88;;
53927;SDS011;39837;47.630;18.822;2023-04-01T03:22:11;1.35;;;1.35;;
53927;SDS011;39837;47.630;18.822;2023-04-01T03:24:55;2.33;;;1.73;;
53927;SDS011;39837;47.630;18.822;2023-04-01T03:27:38;1.63;;;1.52;;
53927;SDS011;39837;47.630;18.822;2023-04-01T03:30:23;1.15;;;1.15;;
53927;SDS011;39837;47.630;18.822;2023-04-01T03:33:06;1.20;;;1.20;;
53927;SDS011;39837;47.630;18.822;2023-04-01T03:35:50;1.52;;;1.52;;
53927;SDS011;39837;47.630;18.822;2023-04-01T03:38:35;1.13;;;1.13;;
53927;SDS011;39837;47.630;18.822;2023-04-01T03:41:19;1.13;;;1.13;;
53927;SDS011;39837;47.630;18.822;2023-04-01T03:44:04;1.38;;;1.30;;
53927;SDS011;39837;47.630;18.822;2023-04-01T03:46:49;1.73;;;1.70;;
53927;SDS011;39837;47.630;18.822;2023-04-01T03:49:33;1.50;;;1.50;;
53927;SDS011;39837;47.630;18.822;2023-04-01T03:52:17;3.38;;;1.50;;
53927;SDS011;39837;47.630;18.822;2023-04-01T03:55:01;1.58;;;1.48;;
53927;SDS011;39837;47.630;18.822;2023-04-01T03:57:45;1.20;;;1.20;;
53927;SDS011;39837;47.630;18.822;2023-04-01T04:00:29;1.20;;;1.20;;
53927;SDS011;39837;47.630;18.822;2023-04-01T04:03:14;1.35;;;1.35;;
53927;SDS011;39837;47.630;18.822;2023-04-01T04:05:58;1.30;;;1.30;;
53927;SDS011;39837;47.630;18.822;2023-04-01T04:08:42;1.27;;;1.27;;
53927;SDS011;39837;47.630;18.822;2023-04-01T04:11:26;1.20;;;1.20;;
53927;SDS011;39837;47.630;18.822;2023-04-01T04:14:10;1.13;;;1.13;;
53927;SDS011;39837;47.630;18.822;2023-04-01T04:16:54;1.00;;;1.00;;
53927;SDS011;39837;47.630;18.822;2023-04-01T04:19:38;1.27;;;1.10;;
53927;SDS011;39837;47.630;18.822;2023-04-01T04:22:22;1.20;;;1.20;;
53927;SDS011;39837;47.630;18.822;2023-04-01T04:25:06;5.35;;;1.63;;
53927;SDS011;39837;47.630;18.822;2023-04-01T04:27:50;1.63;;;1.38;;
53927;SDS011;39837;47.630;18.822;2023-04-01T04:30:34;1.30;;;1.30;;
53927;SDS011;39837;47.630;18.822;2023-04-01T04:33:20;1.88;;;1.77;;
53927;SDS011;39837;47.630;18.822;2023-04-01T04:36:05;1.25;;;1.25;;
53927;SDS011;39837;47.630;18.822;2023-04-01T04:38:49;2.28;;;2.17;;
53927;SDS011;39837;47.630;18.822;2023-04-01T04:41:33;4.20;;;2.78;;
53927;SDS011;39837;47.630;18.822;2023-04-01T04:44:17;2.65;;;2.42;;
53927;SDS011;39837;47.630;18.822;2023-04-01T04:47:01;3.03;;;2.80;;
53927;SDS011;39837;47.630;18.822;2023-04-01T04:49:45;2.13;;;2.03;;
53927;SDS011;39837;47.630;18.822;2023-04-01T04:52:29;4.85;;;2.78;;
53927;SDS011;39837;47.630;18.822;2023-04-01T04:55:13;2.35;;;2.22;;
53927;SDS011;39837;47.630;18.822;2023-04-01T04:57:58;3.17;;;2.55;;
53927;SDS011;39837;47.630;18.822;2023-04-01T05:00:42;3.22;;;2.90;;
53927;SDS011;39837;47.630;18.822;2023-04-01T05:03:26;3.55;;;3.35;;
53927;SDS011;39837;47.630;18.822;2023-04-01T05:06:11;2.63;;;2.42;;
53927;SDS011;39837;47.630;18.822;2023-04-01T05:08:57;2.92;;;2.72;;
53927;SDS011;39837;47.630;18.822;2023-04-01T05:11:41;3.05;;;2.67;;
53927;SDS011;39837;47.630;18.822;2023-04-01T05:14:25;2.28;;;2.17;;
53927;SDS011;39837;47.630;18.822;2023-04-01T05:17:09;2.33;;;2.22;;
53927;SDS011;39837;47.630;18.822;2023-04-01T05:19:54;2.10;;;2.00;;
53927;SDS011;39837;47.630;18.822;2023-04-01T05:22:38;2.10;;;2.00;;
53927;SDS011;39837;47.630;18.822;2023-04-01T05:25:22;2.05;;;1.95;;
53927;SDS011;39837;47.630;18.822;2023-04-01T05:28:06;2.20;;;2.20;;
53927;SDS011;39837;47.630;18.822;2023-04-01T05:30:50;2.13;;;2.03;;
53927;SDS011;39837;47.630;18.822;2023-04-01T05:33:34;2.28;;;2.17;;
53927;SDS011;39837;47.630;18.822;2023-04-01T05:36:19;2.13;;;2.03;;
53927;SDS011;39837;47.630;18.822;2023-04-01T05:39:03;2.83;;;2.45;;
53927;SDS011;39837;47.630;18.822;2023-04-01T05:41:46;3.47;;;3.28;;
53927;SDS011;39837;47.630;18.822;2023-04-01T05:44:31;6.07;;;3.38;;
53927;SDS011;39837;47.630;18.822;2023-04-01T05:47:15;8.68;;;3.97;;
53927;SDS011;39837;47.630;18.822;2023-04-01T05:49:59;8.75;;;6.85;;
53927;SDS011;39837;47.630;18.822;2023-04-01T05:52:43;11.65;;;8.10;;
53927;SDS011;39837;47.630;18.822;2023-04-01T05:55:28;9.70;;;8.38;;
53927;SDS011;39837;47.630;18.822;2023-04-01T05:58:12;5.70;;;5.03;;
53927;SDS011;39837;47.630;18.822;2023-04-01T06:01:00;8.07;;;5.43;;
53927;SDS011;39837;47.630;18.822;2023-04-01T06:03:47;6.25;;;5.40;;
53927;SDS011;39837;47.630;18.822;2023-04-01T06:06:32;4.20;;;3.88;;
53927;SDS011;39837;47.630;18.822;2023-04-01T06:09:17;6.55;;;4.88;;
53927;SDS011;39837;47.630;18.822;2023-04-01T06:15:20;2.67;;;2.38;;
53927;SDS011;39837;47.630;18.822;2023-04-01T06:18:20;3.33;;;3.03;;
53927;SDS011;39837;47.630;18.822;2023-04-01T06:24:42;1.88;;;1.88;;
53927;SDS011;39837;47.630;18.822;2023-04-01T06:33:29;2.75;;;2.55;;
53927;SDS011;39837;47.630;18.822;2023-04-01T06:42:13;2.85;;;2.65;;
53927;SDS011;39837;47.630;18.822;2023-04-01T06:45:04;4.78;;;3.58;;
53927;SDS011;39837;47.630;18.822;2023-04-01T06:48:01;3.42;;;3.13;;
53927;SDS011;39837;47.630;18.822;2023-04-01T06:50:56;2.40;;;2.30;;
53927;SDS011;39837;47.630;18.822;2023-04-01T06:59:27;2.28;;;2.17;;
53927;SDS011;39837;47.630;18.822;2023-04-01T07:02:24;4.15;;;3.47;;
53927;SDS011;39837;47.630;18.822;2023-04-01T07:05:13;2.75;;;2.53;;
53927;SDS011;39837;47.630;18.822;2023-04-01T07:07:59;2.63;;;2.42;;
53927;SDS011;39837;47.630;18.822;2023-04-01T07:11:01;2.05;;;1.85;;
53927;SDS011;39837;47.630;18.822;2023-04-01T07:13:53;2.17;;;1.95;;
53927;SDS011;39837;47.630;18.822;2023-04-01T07:16:41;1.95;;;1.85;;
53927;SDS011;39837;47.630;18.822;2023-04-01T07:26:00;1.52;;;1.42;;
53927;SDS011;39837;47.630;18.822;2023-04-01T07:28:44;1.42;;;1.42;;
53927;SDS011;39837;47.630;18.822;2023-04-01T07:37:23;2.22;;;2.13;;
53927;SDS011;39837;47.630;18.822;2023-04-01T08:07:10;0.93;;;0.93;;
53927;SDS011;39837;47.630;18.822;2023-04-01T08:10:21;2.13;;;1.95;;
53927;SDS011;39837;47.630;18.822;2023-04-01T08:13:16;1.65;;;1.50;;
53927;SDS011;39837;47.630;18.822;2023-04-01T08:16:22;1.73;;;1.60;;
53927;SDS011;39837;47.630;18.822;2023-04-01T08:22:41;1.15;;;1.15;;
53927;SDS011;39837;47.630;18.822;2023-04-01T08:25:27;1.38;;;1.38;;
53927;SDS011;39837;47.630;18.822;2023-04-01T08:28:17;1.52;;;1.50;;
53927;SDS011;39837;47.630;18.822;2023-04-01T08:31:06;1.50;;;1.50;;
53927;SDS011;39837;47.630;18.822;2023-04-01T08:34:22;1.27;;;1.20;;
53927;SDS011;39837;47.630;18.822;2023-04-01T08:37:15;1.17;;;1.17;;
53927;SDS011;39837;47.630;18.822;2023-04-01T08:40:04;1.20;;;1.20;;
53927;SDS011;39837;47.630;18.822;2023-04-01T08:43:20;0.88;;;0.88;;
53927;SDS011;39837;47.630;18.822;2023-04-01T08:49:22;1.23;;;1.23;;
53927;SDS011;39837;47.630;18.822;2023-04-01T08:55:29;1.10;;;1.10;;
53927;SDS011;39837;47.630;18.822;2023-04-01T09:01:37;1.65;;;1.55;;
53927;SDS011;39837;47.630;18.822;2023-04-01T09:07:46;1.00;;;0.98;;
53927;SDS011;39837;47.630;18.822;2023-04-01T09:29:40;5.25;;;1.50;;
53927;SDS011;39837;47.630;18.822;2023-04-01T09:41:26;1.25;;;1.25;;
53927;SDS011;39837;47.630;18.822;2023-04-01T09:44:35;2.45;;;1.95;;
53927;SDS011;39837;47.630;18.822;2023-04-01T09:47:37;1.30;;;1.30;;
53927;SDS011;39837;47.630;18.822;2023-04-01T09:56:22;1.52;;;0.90;;
53927;SDS011;39837;47.630;18.822;2023-04-01T10:05:40;2.08;;;2.00;;
53927;SDS011;39837;47.630;18.822;2023-04-01T10:09:00;5.32;;;1.73;;
53927;SDS011;39837;47.630;18.822;2023-04-01T10:12:38;1.58;;;1.52;;
53927;SDS011;39837;47.630;18.822;2023-04-01T10:21:29;1.38;;;1.38;;
53927;SDS011;39837;47.630;18.822;2023-04-01T10:37:53;1.10;;;1.10;;
53927;SDS011;39837;47.630;18.822;2023-04-01T10:46:41;1.42;;;1.42;;
53927;SDS011;39837;47.630;18.822;2023-04-01T10:56:33;2.00;;;1.10;;
53927;SDS011;39837;47.630;18.822;2023-04-01T12:03:55;1.50;;;1.20;;
53927;SDS011;39837;47.630;18.822;2023-04-01T12:12:36;7.63;;;2.60;;
53927;SDS011;39837;47.630;18.822;2023-04-01T12:18:30;3.28;;;1.55;;
53927;SDS011;39837;47.630;18.822;2023-04-01T12:21:35;1.23;;;1.23;;
53927;SDS011;39837;47.630;18.822;2023-04-01T12:42:46;1.50;;;1.02;;
53927;SDS011;39837;47.630;18.822;2023-04-01T12:49:12;1.25;;;1.15;;
53927;SDS011;39837;47.630;18.822;2023-04-01T13:01:57;0.80;;;0.80;;
53927;SDS011;39837;47.630;18.822;2023-04-01T13:16:22;2.15;;;1.83;;
53927;SDS011;39837;47.630;18.822;2023-04-01T13:28:58;1.20;;;1.20;;
53927;SDS011;39837;47.630;18.822;2023-04-01T13:32:13;1.05;;;1.05;;
53927;SDS011;39837;47.630;18.822;2023-04-01T13:44:09;1.45;;;1.13;;
53927;SDS011;39837;47.630;18.822;2023-04-01T13:53:16;1.10;;;1.10;;
53927;SDS011;39837;47.630;18.822;2023-04-01T14:11:09;3.45;;;2.92;;
53927;SDS011;39837;47.630;18.822;2023-04-01T14:32:34;1.17;;;1.17;;
53927;SDS011;39837;47.630;18.822;2023-04-01T14:38:25;0.90;;;0.90;;
53927;SDS011;39837;47.630;18.822;2023-04-01T14:47:51;1.65;;;1.55;;
53927;SDS011;39837;47.630;18.822;2023-04-01T14:50:45;1.02;;;1.02;;
53927;SDS011;39837;47.630;18.822;2023-04-01T14:53:33;1.35;;;1.27;;
53927;SDS011;39837;47.630;18.822;2023-04-01T14:56:35;1.10;;;1.10;;
53927;SDS011;39837;47.630;18.822;2023-04-01T14:59:31;1.17;;;1.13;;
53927;SDS011;39837;47.630;18.822;2023-04-01T15:14:27;0.90;;;0.90;;
53927;SDS011;39837;47.630;18.822;2023-04-01T15:20:33;1.23;;;1.02;;
53927;SDS011;39837;47.630;18.822;2023-04-01T15:23:46;0.80;;;0.80;;
53927;SDS011;39837;47.630;18.822;2023-04-01T15:26:52;0.75;;;0.75;;
53927;SDS011;39837;47.630;18.822;2023-04-01T15:29:43;0.80;;;0.80;;
53927;SDS011;39837;47.630;18.822;2023-04-01T15:32:57;1.20;;;1.10;;
53927;SDS011;39837;47.630;18.822;2023-04-01T15:36:06;0.85;;;0.85;;
53927;SDS011;39837;47.630;18.822;2023-04-01T15:47:53;0.85;;;0.85;;
53927;SDS011;39837;47.630;18.822;2023-04-01T16:08:48;4.05;;;1.20;;
53927;SDS011;39837;47.630;18.822;2023-04-01T16:21:14;1.40;;;1.40;;
53927;SDS011;39837;47.630;18.822;2023-04-01T16:24:34;1.45;;;1.02;;
53927;SDS011;39837;47.630;18.822;2023-04-01T16:36:35;1.20;;;1.20;;
53927;SDS011;39837;47.630;18.822;2023-04-01T16:39:29;1.92;;;1.83;;
53927;SDS011;39837;47.630;18.822;2023-04-01T16:45:43;1.30;;;1.30;;
53927;SDS011;39837;47.630;18.822;2023-04-01T16:57:35;11.43;;;1.95;;
53927;SDS011;39837;47.630;18.822;2023-04-01T17:00:29;1.63;;;1.63;;
53927;SDS011;39837;47.630;18.822;2023-04-01T17:03:41;1.20;;;1.20;;
53927;SDS011;39837;47.630;18.822;2023-04-01T17:06:36;1.13;;;1.00;;
53927;SDS011;39837;47.630;18.822;2023-04-01T17:15:26;1.73;;;1.73;;
53927;SDS011;39837;47.630;18.822;2023-04-01T17:21:54;1.88;;;1.77;;
53927;SDS011;39837;47.630;18.822;2023-04-01T17:30:33;2.00;;;2.00;;
53927;SDS011;39837;47.630;18.822;2023-04-01T17:36:27;2.13;;;2.03;;
53927;SDS011;39837;47.630;18.822;2023-04-01T17:42:16;1.98;;;1.88;;
53927;SDS011;39837;47.630;18.822;2023-04-01T17:45:45;2.33;;;2.13;;
53927;SDS011;39837;47.630;18.822;2023-04-01T17:48:41;2.28;;;2.17;;
53927;SDS011;39837;47.630;18.822;2023-04-01T17:51:30;1.45;;;1.45;;
53927;SDS011;39837;47.630;18.822;2023-04-01T18:00:21;1.65;;;1.65;;
53927;SDS011;39837;47.630;18.822;2023-04-01T18:06:58;1.50;;;1.50;;
53927;SDS011;39837;47.630;18.822;2023-04-01T18:12:52;1.98;;;1.88;;
53927;SDS011;39837;47.630;18.822;2023-04-01T18:19:09;1.67;;;1.60;;
53927;SDS011;39837;47.630;18.822;2023-04-01T18:25:05;2.38;;;2.17;;
53927;SDS011;39837;47.630;18.822;2023-04-01T18:31:20;3.90;;;3.03;;
53927;SDS011;39837;47.630;18.822;2023-04-01T18:37:24;4.45;;;3.10;;
53927;SDS011;39837;47.630;18.822;2023-04-01T18:46:26;3.28;;;2.97;;
53927;SDS011;39837;47.630;18.822;2023-04-01T18:52:40;9.13;;;2.67;;
53927;SDS011;39837;47.630;18.822;2023-04-01T18:55:32;3.42;;;3.08;;
53927;SDS011;39837;47.630;18.822;2023-04-01T18:58:52;7.88;;;6.05;;
53927;SDS011;39837;47.630;18.822;2023-04-01T19:04:30;12.13;;;6.63;;
53927;SDS011;39837;47.630;18.822;2023-04-01T19:37:40;4.45;;;3.35;;
53927;SDS011;39837;47.630;18.822;2023-04-01T19:40:55;4.18;;;3.83;;
53927;SDS011;39837;47.630;18.822;2023-04-01T19:44:04;6.75;;;3.88;;
53927;SDS011;39837;47.630;18.822;2023-04-01T19:47:15;5.15;;;3.50;;
53927;SDS011;39837;47.630;18.822;2023-04-01T20:00:22;4.72;;;4.30;;
53927;SDS011;39837;47.630;18.822;2023-04-01T20:03:14;3.00;;;2.75;;
